sensor_id;sensor_type;location;lat;lon;timestamp;temperature;humidity
17968;DHT22;9109;48.050;11.696;2022-12-07T04:46:02;3.60;99.90
17968;DHT22;9109;48.050;11.696;2022-12-07T04:49:04;3.60;99.90
17968;DHT22;9109;48.050;11.696;2022-12-07T04:52:06;3.60;99.90
17968;DHT22;9109;48.050;11.696;2022-12-07T04:55:08;3.60;99.90
17968;DHT22;9109;48.050;11.696;2022-12-07T04:58:10;3.60;99.90
17968;DHT22;9109;48.050;11.696;2022-12-07T05:01:15;3.50;99.90
17968;DHT22;9109;48.050;11.696;2022-12-07T05:04:17;3.60;99.90
17968;DHT22;9109;48.050;11.696;2022-12-07T05:07:19;3.60;99.90
17968;DHT22;9109;48.050;11.696;2022-12-07T05:10:22;3.60;99.90
17968;DHT22;9109;48.050;11.696;2022-12-07T05:13:24;3.60;99.90
17968;DHT22;9109;48.050;11.696;2022-12-07T05:16:28;3.60;99.90
17968;DHT22;9109;48.050;11.696;2022-12-07T05:19:30;3.60;99.90
17968;DHT22;9109;48.050;11.696;2022-12-07T05:22:32;3.50;99.90
17968;DHT22;9109;48.050;11.696;2022-12-07T05:25:34;3.60;99.90
17968;DHT22;9109;48.050;11.696;2022-12-07T05:28:36;3.60;99.90
17968;DHT22;9109;48.050;11.696;2022-12-07T05:31:40;3.50;99.90
17968;DHT22;9109;48.050;11.696;2022-12-07T05:34:42;3.50;99.90
17968;DHT22;9109;48.050;11.696;2022-12-07T05:37:44;3.50;99.90
17968;DHT22;9109;48.050;11.696;2022-12-07T05:40:48;3.50;99.90
17968;DHT22;9109;48.050;11.696;2022-12-07T05:43:50;3.50;99.90
17968;DHT22;9109;48.050;11.696;2022-12-07T05:46:56;3.40;99.90
17968;DHT22;9109;48.050;11.696;2022-12-07T05:55:18;3.40;99.90
17968;DHT22;9109;48.050;11.696;2022-12-07T05:58:12;3.40;99.90
17968;DHT22;9109;48.050;11.696;2022-12-07T06:01:34;3.40;99.90
17968;DHT22;9109;48.050;11.696;2022-12-07T06:04:58;3.50;99.90
17968;DHT22;9109;48.050;11.696;2022-12-07T06:08:01;3.50;99.90
17968;DHT22;9109;48.050;11.696;2022-12-07T06:15:24;3.40;99.90
17968;DHT22;9109;48.050;11.696;2022-12-07T06:18:44;3.40;99.90
17968;DHT22;9109;48.050;11.696;2022-12-07T06:21:48;3.40;99.90
17968;DHT22;9109;48.050;11.696;2022-12-07T06:24:50;3.40;99.90
17968;DHT22;9109;48.050;11.696;2022-12-07T06:28:01;3.40;99.90
17968;DHT22;9109;48.050;11.696;2022-12-07T06:31:04;3.50;99.90
17968;DHT22;9109;48.050;11.696;2022-12-07T06:34:07;3.40;99.90
17968;DHT22;9109;48.050;11.696;2022-12-07T06:37:12;3.50;99.90
17968;DHT22;9109;48.050;11.696;2022-12-07T06:40:14;3.40;99.90
17968;DHT22;9109;48.050;11.696;2022-12-07T06:43:16;3.40;99.90
17968;DHT22;9109;48.050;11.696;2022-12-07T06:46:18;3.40;99.90
17968;DHT22;9109;48.050;11.696;2022-12-07T06:49:20;3.40;99.90
17968;DHT22;9109;48.050;11.696;2022-12-07T06:52:23;3.40;99.90
17968;DHT22;9109;48.050;11.696;2022-12-07T06:55:25;3.40;99.90
17968;DHT22;9109;48.050;11.696;2022-12-07T06:58:27;3.30;99.90
17968;DHT22;9109;48.050;11.696;2022-12-07T07:01:29;3.30;99.90
17968;DHT22;9109;48.050;11.696;2022-12-07T07:04:31;3.40;99.90
17968;DHT22;9109;48.050;11.696;2022-12-07T07:07:35;3.40;99.90
17968;DHT22;9109;48.050;11.696;2022-12-07T07:10:37;3.40;99.90
17968;DHT22;9109;48.050;11.696;2022-12-07T07:13:39;3.40;99.90
17968;DHT22;9109;48.050;11.696;2022-12-07T07:16:41;3.40;99.90
17968;DHT22;9109;48.050;11.696;2022-12-07T07:19:43;3.40;99.90
17968;DHT22;9109;48.050;11.696;2022-12-07T07:22:46;3.40;99.90
17968;DHT22;9109;48.050;11.696;2022-12-07T07:25:48;3.40;99.90
17968;DHT22;9109;48.050;11.696;2022-12-07T07:28:50;3.40;99.90
17968;DHT22;9109;48.050;11.696;2022-12-07T07:31:52;3.30;99.90
17968;DHT22;9109;48.050;11.696;2022-12-07T07:34:54;3.30;99.90
17968;DHT22;9109;48.050;11.696;2022-12-07T07:37:57;3.30;99.90
17968;DHT22;9109;48.050;11.696;2022-12-07T07:40:59;3.30;99.90
17968;DHT22;9109;48.050;11.696;2022-12-07T07:44:01;3.30;99.90
17968;DHT22;9109;48.050;11.696;2022-12-07T07:47:03;3.30;99.90
17968;DHT22;9109;48.050;11.696;2022-12-07T07:50:06;3.30;99.90
17968;DHT22;9109;48.050;11.696;2022-12-07T07:53:09;3.30;99.90
17968;DHT22;9109;48.050;11.696;2022-12-07T07:56:11;3.30;99.90
17968;DHT22;9109;48.050;11.696;2022-12-07T07:59:14;3.30;99.90
17968;DHT22;9109;48.050;11.696;2022-12-07T08:02:18;3.30;99.90
17968;DHT22;9109;48.050;11.696;2022-12-07T08:05:20;3.30;99.90
17968;DHT22;9109;48.050;11.696;2022-12-07T08:08:23;3.40;99.90
17968;DHT22;9109;48.050;11.696;2022-12-07T08:11:26;3.40;99.90
17968;DHT22;9109;48.050;11.696;2022-12-07T08:14:28;3.50;99.90
17968;DHT22;9109;48.050;11.696;2022-12-07T08:17:30;3.40;99.90
17968;DHT22;9109;48.050;11.696;2022-12-07T08:20:32;3.50;99.90
17968;DHT22;9109;48.050;11.696;2022-12-07T08:23:36;3.60;99.90
17968;DHT22;9109;48.050;11.696;2022-12-07T08:26:38;3.60;99.90
17968;DHT22;9109;48.050;11.696;2022-12-07T08:29:40;3.60;99.90
17968;DHT22;9109;48.050;11.696;2022-12-07T08:32:43;3.50;99.90
17968;DHT22;9109;48.050;11.696;2022-12-07T08:35:45;3.50;99.90
17968;DHT22;9109;48.050;11.696;2022-12-07T08:38:49;3.40;99.90
17968;DHT22;9109;48.050;11.696;2022-12-07T08:41:51;3.50;99.90
17968;DHT22;9109;48.050;11.696;2022-12-07T08:44:53;3.40;99.90
17968;DHT22;9109;48.050;11.696;2022-12-07T08:47:57;3.40;99.90
17968;DHT22;9109;48.050;11.696;2022-12-07T08:51:01;3.40;99.90
17968;DHT22;9109;48.050;11.696;2022-12-07T08:54:07;3.30;99.90
17968;DHT22;9109;48.050;11.696;2022-12-07T08:57:10;3.30;99.90
17968;DHT22;9109;48.050;11.696;2022-12-07T09:00:14;3.30;99.90
17968;DHT22;9109;48.050;11.696;2022-12-07T09:03:17;3.30;99.90
17968;DHT22;9109;48.050;11.696;2022-12-07T09:06:19;3.30;99.90
17968;DHT22;9109;48.050;11.696;2022-12-07T09:09:23;3.40;99.90
17968;DHT22;9109;48.050;11.696;2022-12-07T09:12:25;3.30;99.90
17968;DHT22;9109;48.050;11.696;2022-12-07T09:15:27;3.30;99.90
17968;DHT22;9109;48.050;11.696;2022-12-07T09:18:29;3.30;99.90
17968;DHT22;9109;48.050;11.696;2022-12-07T09:21:31;3.40;99.90
17968;DHT22;9109;48.050;11.696;2022-12-07T09:24:35;3.40;99.90
17968;DHT22;9109;48.050;11.696;2022-12-07T09:27:37;3.50;99.90
17968;DHT22;9109;48.050;11.696;2022-12-07T09:30:39;3.60;99.90
17968;DHT22;9109;48.050;11.696;2022-12-07T09:33:40;3.60;99.90
17968;DHT22;9109;48.050;11.696;2022-12-07T09:36:42;3.60;99.90
17968;DHT22;9109;48.050;11.696;2022-12-07T09:39:46;3.80;99.90
17968;DHT22;9109;48.050;11.696;2022-12-07T09:42:51;3.80;99.90
17968;DHT22;9109;48.050;11.696;2022-12-07T09:45:54;3.80;99.90
17968;DHT22;9109;48.050;11.696;2022-12-07T09:48:57;3.80;99.90
17968;DHT22;9109;48.050;11.696;2022-12-07T09:52:16;3.80;99.90
17968;DHT22;9109;48.050;11.696;2022-12-07T09:55:29;3.90;99.90
17968;DHT22;9109;48.050;11.696;2022-12-07T09:58:33;3.90;99.90
17968;DHT22;9109;48.050;11.696;2022-12-07T10:01:37;3.90;99.90
17968;DHT22;9109;48.050;11.696;2022-12-07T10:04:40;4.00;99.90
17968;DHT22;9109;48.050;11.696;2022-12-07T10:07:42;4.10;99.90
17968;DHT22;9109;48.050;11.696;2022-12-07T10:10:49;4.10;99.90
17968;DHT22;9109;48.050;11.696;2022-12-07T10:13:52;4.20;99.90
17968;DHT22;9109;48.050;11.696;2022-12-07T10:16:54;4.20;99.90
17968;DHT22;9109;48.050;11.696;2022-12-07T10:20:16;4.10;99.90
17968;DHT22;9109;48.050;11.696;2022-12-07T10:23:18;4.20;99.90
17968;DHT22;9109;48.050;11.696;2022-12-07T10:26:28;4.30;99.90
17968;DHT22;9109;48.050;11.696;2022-12-07T10:29:32;4.40;99.90
17968;DHT22;9109;48.050;11.696;2022-12-07T10:32:35;4.40;99.90
17968;DHT22;9109;48.050;11.696;2022-12-07T10:35:43;4.50;99.90
17968;DHT22;9109;48.050;11.696;2022-12-07T10:38:46;4.50;99.90
17968;DHT22;9109;48.050;11.696;2022-12-07T10:41:57;4.50;99.90
17968;DHT22;9109;48.050;11.696;2022-12-07T10:45:08;4.50;99.90
17968;DHT22;9109;48.050;11.696;2022-12-07T10:48:16;4.50;99.90
17968;DHT22;9109;48.050;11.696;2022-12-07T10:51:24;4.50;99.90
17968;DHT22;9109;48.050;11.696;2022-12-07T10:54:39;4.50;99.90
17968;DHT22;9109;48.050;11.696;2022-12-07T10:57:52;4.50;99.90
17968;DHT22;9109;48.050;11.696;2022-12-07T11:01:04;4.40;99.90
17968;DHT22;9109;48.050;11.696;2022-12-07T11:04:24;4.40;99.90
17968;DHT22;9109;48.050;11.696;2022-12-07T11:07:41;4.50;99.90
17968;DHT22;9109;48.050;11.696;2022-12-07T11:10:48;4.50;99.90
17968;DHT22;9109;48.050;11.696;2022-12-07T11:13:59;4.50;99.90
17968;DHT22;9109;48.050;11.696;2022-12-07T11:17:07;4.40;99.90
17968;DHT22;9109;48.050;11.696;2022-12-07T11:20:26;4.40;99.90
17968;DHT22;9109;48.050;11.696;2022-12-07T11:23:41;4.50;99.90
17968;DHT22;9109;48.050;11.696;2022-12-07T11:27:06;4.30;99.90
17968;DHT22;9109;48.050;11.696;2022-12-07T11:30:18;4.30;99.90
17968;DHT22;9109;48.050;11.696;2022-12-07T11:33:29;4.30;99.90
17968;DHT22;9109;48.050;11.696;2022-12-07T11:36:37;4.40;99.90
17968;DHT22;9109;48.050;11.696;2022-12-07T11:39:42;4.50;99.90
17968;DHT22;9109;48.050;11.696;2022-12-07T11:42:52;4.50;99.90
17968;DHT22;9109;48.050;11.696;2022-12-07T11:46:02;4.60;99.90
17968;DHT22;9109;48.050;11.696;2022-12-07T11:49:11;4.50;99.90
17968;DHT22;9109;48.050;11.696;2022-12-07T11:52:22;4.50;99.90
17968;DHT22;9109;48.050;11.696;2022-12-07T11:55:31;4.40;99.90
17968;DHT22;9109;48.050;11.696;2022-12-07T11:58:44;4.50;99.90
17968;DHT22;9109;48.050;11.696;2022-12-07T12:01:53;4.50;99.90
17968;DHT22;9109;48.050;11.696;2022-12-07T12:05:02;4.50;99.90
17968;DHT22;9109;48.050;11.696;2022-12-07T12:08:13;4.40;99.90
17968;DHT22;9109;48.050;11.696;2022-12-07T12:11:25;4.30;99.90
17968;DHT22;9109;48.050;11.696;2022-12-07T12:14:42;4.40;99.90
17968;DHT22;9109;48.050;11.696;2022-12-07T12:18:08;4.40;99.90
17968;DHT22;9109;48.050;11.696;2022-12-07T12:21:13;4.40;99.90
17968;DHT22;9109;48.050;11.696;2022-12-07T12:24:20;4.40;99.90
17968;DHT22;9109;48.050;11.696;2022-12-07T12:27:27;4.40;99.90
17968;DHT22;9109;48.050;11.696;2022-12-07T12:30:34;4.40;99.90
17968;DHT22;9109;48.050;11.696;2022-12-07T12:33:38;4.40;99.90
17968;DHT22;9109;48.050;11.696;2022-12-07T12:36:45;4.40;99.90
17968;DHT22;9109;48.050;11.696;2022-12-07T12:40:12;4.40;99.90
17968;DHT22;9109;48.050;11.696;2022-12-07T12:46:53;4.40;99.90
17968;DHT22;9109;48.050;11.696;2022-12-07T12:50:18;4.50;99.90
17968;DHT22;9109;48.050;11.696;2022-12-07T12:53:23;4.50;99.90
17968;DHT22;9109;48.050;11.696;2022-12-07T12:56:38;4.60;99.90
17968;DHT22;9109;48.050;11.696;2022-12-07T12:59:42;4.60;99.90
17968;DHT22;9109;48.050;11.696;2022-12-07T13:02:58;4.50;99.90
17968;DHT22;9109;48.050;11.696;2022-12-07T13:06:19;4.50;99.90
17968;DHT22;9109;48.050;11.696;2022-12-07T13:09:24;4.30;99.90
17968;DHT22;9109;48.050;11.696;2022-12-07T13:12:27;4.20;99.90
17968;DHT22;9109;48.050;11.696;2022-12-07T13:15:34;4.30;99.90
17968;DHT22;9109;48.050;11.696;2022-12-07T13:18:37;4.30;99.90
17968;DHT22;9109;48.050;11.696;2022-12-07T13:21:44;4.20;99.90
17968;DHT22;9109;48.050;11.696;2022-12-07T13:24:46;4.30;99.90
17968;DHT22;9109;48.050;11.696;2022-12-07T13:27:54;4.30;99.90
17968;DHT22;9109;48.050;11.696;2022-12-07T13:31:09;4.40;99.90
17968;DHT22;9109;48.050;11.696;2022-12-07T13:34:30;4.50;99.90
17968;DHT22;9109;48.050;11.696;2022-12-07T13:37:34;4.40;99.90
17968;DHT22;9109;48.050;11.696;2022-12-07T13:40:36;4.30;99.90
17968;DHT22;9109;48.050;11.696;2022-12-07T13:43:50;4.40;99.90
17968;DHT22;9109;48.050;11.696;2022-12-07T13:46:58;4.40;99.90
17968;DHT22;9109;48.050;11.696;2022-12-07T13:50:01;4.30;99.90
17968;DHT22;9109;48.050;11.696;2022-12-07T13:53:12;4.30;99.90
17968;DHT22;9109;48.050;11.696;2022-12-07T13:56:14;4.40;99.90
17968;DHT22;9109;48.050;11.696;2022-12-07T13:59:18;4.40;99.90
17968;DHT22;9109;48.050;11.696;2022-12-07T14:02:24;4.50;99.90
17968;DHT22;9109;48.050;11.696;2022-12-07T14:05:28;4.40;99.90
17968;DHT22;9109;48.050;11.696;2022-12-07T14:08:32;4.40;99.90
17968;DHT22;9109;48.050;11.696;2022-12-07T14:11:34;4.40;99.90
17968;DHT22;9109;48.050;11.696;2022-12-07T14:14:36;4.50;99.90
17968;DHT22;9109;48.050;11.696;2022-12-07T14:17:49;4.50;99.90
17968;DHT22;9109;48.050;11.696;2022-12-07T14:21:02;4.50;99.90
17968;DHT22;9109;48.050;11.696;2022-12-07T14:24:11;4.50;99.90
17968;DHT22;9109;48.050;11.696;2022-12-07T14:27:18;4.60;99.90
17968;DHT22;9109;48.050;11.696;2022-12-07T14:30:21;4.50;99.90
17968;DHT22;9109;48.050;11.696;2022-12-07T14:33:24;4.40;99.90
17968;DHT22;9109;48.050;11.696;2022-12-07T14:36:26;4.40;99.90
17968;DHT22;9109;48.050;11.696;2022-12-07T14:39:29;4.30;99.90
17968;DHT22;9109;48.050;11.696;2022-12-07T14:42:33;4.30;99.90
17968;DHT22;9109;48.050;11.696;2022-12-07T14:45:36;4.30;99.90
17968;DHT22;9109;48.050;11.696;2022-12-07T14:48:37;4.40;99.90
17968;DHT22;9109;48.050;11.696;2022-12-07T14:51:40;4.40;99.90
17968;DHT22;9109;48.050;11.696;2022-12-07T14:54:45;4.30;99.90
17968;DHT22;9109;48.050;11.696;2022-12-07T14:57:47;4.20;99.90
17968;DHT22;9109;48.050;11.696;2022-12-07T15:00:49;4.10;99.90
17968;DHT22;9109;48.050;11.696;2022-12-07T15:03:51;4.00;99.90
17968;DHT22;9109;48.050;11.696;2022-12-07T15:06:56;4.00;99.90
17968;DHT22;9109;48.050;11.696;2022-12-07T15:10:00;3.90;99.90
17968;DHT22;9109;48.050;11.696;2022-12-07T15:13:03;3.80;99.90
17968;DHT22;9109;48.050;11.696;2022-12-07T15:16:20;3.70;99.90
17968;DHT22;9109;48.050;11.696;2022-12-07T15:19:23;3.70;99.90
17968;DHT22;9109;48.050;11.696;2022-12-07T15:22:26;3.60;99.90
17968;DHT22;9109;48.050;11.696;2022-12-07T15:25:31;3.60;99.90
17968;DHT22;9109;48.050;11.696;2022-12-07T15:28:33;3.50;99.90
17968;DHT22;9109;48.050;11.696;2022-12-07T15:31:36;3.50;99.90
17968;DHT22;9109;48.050;11.696;2022-12-07T15:34:38;3.40;99.90
17968;DHT22;9109;48.050;11.696;2022-12-07T15:37:39;3.40;99.90
17968;DHT22;9109;48.050;11.696;2022-12-07T15:40:46;3.30;99.90
17968;DHT22;9109;48.050;11.696;2022-12-07T15:43:48;3.30;99.90
17968;DHT22;9109;48.050;11.696;2022-12-07T15:47:08;3.30;99.90
17968;DHT22;9109;48.050;11.696;2022-12-07T15:50:13;3.20;99.90
17968;DHT22;9109;48.050;11.696;2022-12-07T15:53:16;3.20;99.90
17968;DHT22;9109;48.050;11.696;2022-12-07T15:56:20;3.20;99.90
17968;DHT22;9109;48.050;11.696;2022-12-07T15:59:22;3.20;99.90
17968;DHT22;9109;48.050;11.696;2022-12-07T16:02:25;3.10;99.90
17968;DHT22;9109;48.050;11.696;2022-12-07T16:05:27;3.00;99.90
17968;DHT22;9109;48.050;11.696;2022-12-07T16:08:29;3.00;99.90
17968;DHT22;9109;48.050;11.696;2022-12-07T16:11:32;3.00;99.90
17968;DHT22;9109;48.050;11.696;2022-12-07T16:14:34;2.90;99.90
17968;DHT22;9109;48.050;11.696;2022-12-07T16:17:36;2.90;99.90
17968;DHT22;9109;48.050;11.696;2022-12-07T16:20:38;2.80;99.90
17968;DHT22;9109;48.050;11.696;2022-12-07T16:23:41;2.80;99.90
17968;DHT22;9109;48.050;11.696;2022-12-07T16:26:45;2.80;99.90
17968;DHT22;9109;48.050;11.696;2022-12-07T16:29:47;2.80;99.90
17968;DHT22;9109;48.050;11.696;2022-12-07T16:32:48;2.80;99.90
17968;DHT22;9109;48.050;11.696;2022-12-07T16:35:50;2.80;99.90
17968;DHT22;9109;48.050;11.696;2022-12-07T16:38:53;2.80;99.90
17968;DHT22;9109;48.050;11.696;2022-12-07T16:41:56;2.70;99.90
17968;DHT22;9109;48.050;11.696;2022-12-07T16:44:58;2.70;99.90
17968;DHT22;9109;48.050;11.696;2022-12-07T16:48:00;2.70;99.90
17968;DHT22;9109;48.050;11.696;2022-12-07T16:51:03;2.70;99.90
17968;DHT22;9109;48.050;11.696;2022-12-07T16:54:05;2.70;99.90
17968;DHT22;9109;48.050;11.696;2022-12-07T16:57:08;2.60;99.90
17968;DHT22;9109;48.050;11.696;2022-12-07T17:00:11;2.70;99.90
17968;DHT22;9109;48.050;11.696;2022-12-07T17:03:14;2.70;99.90
17968;DHT22;9109;48.050;11.696;2022-12-07T17:06:19;2.50;99.90
17968;DHT22;9109;48.050;11.696;2022-12-07T17:09:21;2.60;99.90
17968;DHT22;9109;48.050;11.696;2022-12-07T17:12:24;2.60;99.90
17968;DHT22;9109;48.050;11.696;2022-12-07T17:15:26;2.60;99.90
17968;DHT22;9109;48.050;11.696;2022-12-07T17:18:30;2.60;99.90
17968;DHT22;9109;48.050;11.696;2022-12-07T17:21:33;2.60;99.90
17968;DHT22;9109;48.050;11.696;2022-12-07T17:24:35;2.60;99.90
17968;DHT22;9109;48.050;11.696;2022-12-07T17:27:38;2.60;99.90
17968;DHT22;9109;48.050;11.696;2022-12-07T17:30:40;2.60;99.90
17968;DHT22;9109;48.050;11.696;2022-12-07T17:33:42;2.70;99.90
17968;DHT22;9109;48.050;11.696;2022-12-07T17:36:44;2.60;99.90
17968;DHT22;9109;48.050;11.696;2022-12-07T17:39:46;2.60;99.90
17968;DHT22;9109;48.050;11.696;2022-12-07T17:42:50;2.70;99.90
17968;DHT22;9109;48.050;11.696;2022-12-07T17:45:51;2.80;99.90
17968;DHT22;9109;48.050;11.696;2022-12-07T17:48:54;2.90;99.90
17968;DHT22;9109;48.050;11.696;2022-12-07T17:51:56;2.90;99.90
17968;DHT22;9109;48.050;11.696;2022-12-07T17:55:15;3.00;99.90
17968;DHT22;9109;48.050;11.696;2022-12-07T17:58:19;3.00;99.90
17968;DHT22;9109;48.050;11.696;2022-12-07T18:01:21;2.90;99.90
17968;DHT22;9109;48.050;11.696;2022-12-07T18:04:23;2.90;99.90
17968;DHT22;9109;48.050;11.696;2022-12-07T18:07:25;2.90;99.90
17968;DHT22;9109;48.050;11.696;2022-12-07T18:10:27;3.00;99.90
17968;DHT22;9109;48.050;11.696;2022-12-07T18:13:31;3.00;99.90
17968;DHT22;9109;48.050;11.696;2022-12-07T18:16:37;3.20;99.90
17968;DHT22;9109;48.050;11.696;2022-12-07T18:19:39;3.20;99.90
17968;DHT22;9109;48.050;11.696;2022-12-07T18:22:41;3.30;99.90
17968;DHT22;9109;48.050;11.696;2022-12-07T18:25:46;3.30;99.90
17968;DHT22;9109;48.050;11.696;2022-12-07T18:28:50;3.40;99.90
17968;DHT22;9109;48.050;11.696;2022-12-07T18:31:52;3.30;99.90
17968;DHT22;9109;48.050;11.696;2022-12-07T18:34:54;3.30;99.90
17968;DHT22;9109;48.050;11.696;2022-12-07T18:37:56;3.40;99.90
17968;DHT22;9109;48.050;11.696;2022-12-07T18:40:58;3.50;99.90
17968;DHT22;9109;48.050;11.696;2022-12-07T18:44:03;3.40;99.90
17968;DHT22;9109;48.050;11.696;2022-12-07T18:47:05;3.60;99.90
17968;DHT22;9109;48.050;11.696;2022-12-07T18:50:08;3.50;99.90
17968;DHT22;9109;48.050;11.696;2022-12-07T18:53:10;3.60;99.90
17968;DHT22;9109;48.050;11.696;2022-12-07T18:56:15;3.60;99.90
17968;DHT22;9109;48.050;11.696;2022-12-07T18:59:19;3.70;99.90
17968;DHT22;9109;48.050;11.696;2022-12-07T19:02:38;3.70;99.90
17968;DHT22;9109;48.050;11.696;2022-12-07T19:05:40;3.70;99.90
17968;DHT22;9109;48.050;11.696;2022-12-07T19:08:42;3.50;99.90
17968;DHT22;9109;48.050;11.696;2022-12-07T19:11:44;3.60;99.90
17968;DHT22;9109;48.050;11.696;2022-12-07T19:14:54;3.60;99.90
17968;DHT22;9109;48.050;11.696;2022-12-07T19:17:56;3.50;99.90
17968;DHT22;9109;48.050;11.696;2022-12-07T19:21:01;3.50;99.90
17968;DHT22;9109;48.050;11.696;2022-12-07T19:24:04;3.50;99.90
17968;DHT22;9109;48.050;11.696;2022-12-07T19:27:07;3.40;99.90
17968;DHT22;9109;48.050;11.696;2022-12-07T19:30:11;3.50;99.90
17968;DHT22;9109;48.050;11.696;2022-12-07T19:33:13;3.60;99.90
17968;DHT22;9109;48.050;11.696;2022-12-07T19:36:15;3.70;99.90
17968;DHT22;9109;48.050;11.696;2022-12-07T19:39:17;3.70;99.90
17968;DHT22;9109;48.050;11.696;2022-12-07T19:42:19;3.70;99.90
17968;DHT22;9109;48.050;11.696;2022-12-07T19:45:22;3.80;99.90
17968;DHT22;9109;48.050;11.696;2022-12-07T19:48:28;3.60;99.90
17968;DHT22;9109;48.050;11.696;2022-12-07T19:51:30;3.50;99.90
17968;DHT22;9109;48.050;11.696;2022-12-07T19:54:34;3.50;99.90
17968;DHT22;9109;48.050;11.696;2022-12-07T19:57:36;3.50;99.90
17968;DHT22;9109;48.050;11.696;2022-12-07T20:00:39;3.30;99.90
17968;DHT22;9109;48.050;11.696;2022-12-07T20:03:41;3.30;99.90
17968;DHT22;9109;48.050;11.696;2022-12-07T20:06:43;3.40;99.90
17968;DHT22;9109;48.050;11.696;2022-12-07T20:09:45;3.50;99.90
17968;DHT22;9109;48.050;11.696;2022-12-07T20:12:47;3.50;99.90
17968;DHT22;9109;48.050;11.696;2022-12-07T20:16:08;3.60;99.90
17968;DHT22;9109;48.050;11.696;2022-12-07T20:19:11;3.60;99.90
17968;DHT22;9109;48.050;11.696;2022-12-07T20:22:13;3.60;99.90
17968;DHT22;9109;48.050;11.696;2022-12-07T20:25:15;3.50;99.90
17968;DHT22;9109;48.050;11.696;2022-12-07T20:28:19;3.50;99.90
17968;DHT22;9109;48.050;11.696;2022-12-07T20:31:22;3.50;99.90
17968;DHT22;9109;48.050;11.696;2022-12-07T20:34:25;3.50;99.90
17968;DHT22;9109;48.050;11.696;2022-12-07T20:37:27;3.60;99.90
17968;DHT22;9109;48.050;11.696;2022-12-07T20:40:29;3.70;99.90
17968;DHT22;9109;48.050;11.696;2022-12-07T20:43:31;3.70;99.90
17968;DHT22;9109;48.050;11.696;2022-12-07T20:46:35;3.80;99.90
17968;DHT22;9109;48.050;11.696;2022-12-07T20:49:37;3.80;99.90
17968;DHT22;9109;48.050;11.696;2022-12-07T20:52:39;3.70;99.90
17968;DHT22;9109;48.050;11.696;2022-12-07T20:55:41;3.70;99.90
17968;DHT22;9109;48.050;11.696;2022-12-07T20:58:43;3.60;99.90
17968;DHT22;9109;48.050;11.696;2022-12-07T21:01:46;3.40;99.90
17968;DHT22;9109;48.050;11.696;2022-12-07T21:04:48;3.40;99.90
17968;DHT22;9109;48.050;11.696;2022-12-07T21:07:50;3.30;99.90
17968;DHT22;9109;48.050;11.696;2022-12-07T21:10:52;3.30;99.90
17968;DHT22;9109;48.050;11.696;2022-12-07T21:13:54;3.30;99.90
17968;DHT22;9109;48.050;11.696;2022-12-07T21:16:58;3.30;99.90
17968;DHT22;9109;48.050;11.696;2022-12-07T21:20:03;3.40;99.90
17968;DHT22;9109;48.050;11.696;2022-12-07T21:23:05;3.50;99.90
17968;DHT22;9109;48.050;11.696;2022-12-07T21:26:10;3.50;99.90
17968;DHT22;9109;48.050;11.696;2022-12-07T21:29:13;3.50;99.90
17968;DHT22;9109;48.050;11.696;2022-12-07T21:32:16;3.60;99.90
17968;DHT22;9109;48.050;11.696;2022-12-07T21:35:18;3.60;99.90
17968;DHT22;9109;48.050;11.696;2022-12-07T21:38:20;3.40;99.90
17968;DHT22;9109;48.050;11.696;2022-12-07T21:41:24;3.20;99.90
17968;DHT22;9109;48.050;11.696;2022-12-07T21:44:26;3.30;99.90
17968;DHT22;9109;48.050;11.696;2022-12-07T21:47:29;3.30;99.90
17968;DHT22;9109;48.050;11.696;2022-12-07T21:50:32;3.40;99.90
17968;DHT22;9109;48.050;11.696;2022-12-07T21:53:35;3.50;99.90
17968;DHT22;9109;48.050;11.696;2022-12-07T21:56:40;3.50;99.90
17968;DHT22;9109;48.050;11.696;2022-12-07T21:59:42;3.50;99.90
17968;DHT22;9109;48.050;11.696;2022-12-07T22:02:45;3.30;99.90
17968;DHT22;9109;48.050;11.696;2022-12-07T22:05:47;3.40;99.90
17968;DHT22;9109;48.050;11.696;2022-12-07T22:08:53;3.40;99.90
17968;DHT22;9109;48.050;11.696;2022-12-07T22:11:56;3.50;99.90
17968;DHT22;9109;48.050;11.696;2022-12-07T22:14:58;3.50;99.90
17968;DHT22;9109;48.050;11.696;2022-12-07T22:18:11;3.50;99.90
17968;DHT22;9109;48.050;11.696;2022-12-07T22:21:13;3.40;99.90
17968;DHT22;9109;48.050;11.696;2022-12-07T22:24:15;3.40;99.90
17968;DHT22;9109;48.050;11.696;2022-12-07T22:27:17;3.50;99.90
17968;DHT22;9109;48.050;11.696;2022-12-07T22:30:19;3.50;99.90
17968;DHT22;9109;48.050;11.696;2022-12-07T22:33:22;3.50;99.90
17968;DHT22;9109;48.050;11.696;2022-12-07T22:36:24;3.50;99.90
17968;DHT22;9109;48.050;11.696;2022-12-07T22:39:27;3.40;99.90
17968;DHT22;9109;48.050;11.696;2022-12-07T22:42:29;3.40;99.90
17968;DHT22;9109;48.050;11.696;2022-12-07T22:45:31;3.50;99.90
17968;DHT22;9109;48.050;11.696;2022-12-07T22:48:35;3.40;99.90
17968;DHT22;9109;48.050;11.696;2022-12-07T22:51:39;3.40;99.90
17968;DHT22;9109;48.050;11.696;2022-12-07T22:54:41;3.40;99.90
17968;DHT22;9109;48.050;11.696;2022-12-07T22:57:42;3.30;99.90
17968;DHT22;9109;48.050;11.696;2022-12-07T23:00:44;3.30;99.90
17968;DHT22;9109;48.050;11.696;2022-12-07T23:03:48;3.40;99.90
17968;DHT22;9109;48.050;11.696;2022-12-07T23:06:50;3.30;99.90
17968;DHT22;9109;48.050;11.696;2022-12-07T23:09:52;3.30;99.90
17968;DHT22;9109;48.050;11.696;2022-12-07T23:12:54;3.30;99.90
17968;DHT22;9109;48.050;11.696;2022-12-07T23:16:14;3.30;99.90
17968;DHT22;9109;48.050;11.696;2022-12-07T23:19:17;3.20;99.90
17968;DHT22;9109;48.050;11.696;2022-12-07T23:22:19;3.00;99.90
17968;DHT22;9109;48.050;11.696;2022-12-07T23:25:21;3.10;99.90
17968;DHT22;9109;48.050;11.696;2022-12-07T23:28:23;3.10;99.90
17968;DHT22;9109;48.050;11.696;2022-12-07T23:31:25;2.90;99.90
17968;DHT22;9109;48.050;11.696;2022-12-07T23:34:29;2.90;99.90
17968;DHT22;9109;48.050;11.696;2022-12-07T23:37:31;3.00;99.90
17968;DHT22;9109;48.050;11.696;2022-12-07T23:40:33;3.00;99.90
17968;DHT22;9109;48.050;11.696;2022-12-07T23:43:35;2.90;99.90
17968;DHT22;9109;48.050;11.696;2022-12-07T23:46:38;2.90;99.90
17968;DHT22;9109;48.050;11.696;2022-12-07T23:49:41;3.00;99.90
17968;DHT22;9109;48.050;11.696;2022-12-07T23:52:43;3.00;99.90
17968;DHT22;9109;48.050;11.696;2022-12-07T23:55:45;3.10;99.90
17968;DHT22;9109;48.050;11.696;2022-12-07T23:58:48;3.00;99.90
